This is the latest recevied weather packets stored in our database for station/object WX7FGZ-7. If no packets are shown the sender has not sent any weather packets the latest 1 day(s).
| Time | Temp. | Humidity | Pressure | Rain* | Wind** | Luminosity | Snow |
|---|---|---|---|---|---|---|---|
| 1778079878 | 15.56° C | 36% | 1017.1 hPa | 0 mm | - | - | - |
| 1778079423 | 15.56° C | 36% | 1017 hPa | 0 mm | - | - | - |
| 1778078822 | 15° C | 37% | 1017.1 hPa | 0 mm | - | - | - |
| 1778078049 | 14.44° C | 39% | 1017.2 hPa | 0 mm | - | - | - |
| 1778077784 | 13.89° C | 38% | 1017.1 hPa | 0 mm | - | - | - |
| 1778077631 | 13.89° C | 38% | 1017.1 hPa | 0 mm | - | - | - |
| 1778076722 | 13.33° C | 41% | 1017.1 hPa | 0 mm | - | - | - |
| 1778076567 | 12.78° C | 40% | 1016.9 hPa | 0 mm | - | - | - |
| 1778076422 | 12.78° C | 40% | 1016.9 hPa | 0 mm | - | - | - |
| 1778076123 | 12.22° C | 40% | 1016.8 hPa | 0 mm | - | - | - |
| 1778075906 | 12.22° C | 43% | 1016.9 hPa | 0 mm | - | - | - |
| 1778074023 | 7.78° C | 55% | 1016.5 hPa | 0 mm | - | - | - |
| 1778073122 | 6.67° C | 58% | 1016.2 hPa | 0 mm | - | - | - |
| 1778071922 | 6.11° C | 60% | 1015.7 hPa | 0 mm | - | - | - |
| 1778070722 | 6.67° C | 54% | 1015.3 hPa | 0 mm | - | - | - |
| 1778069224 | 6.67° C | 55% | 1015 hPa | 0 mm | - | - | - |
| 1778068729 | 6.67° C | 55% | 1014.9 hPa | 0 mm | - | - | - |
| 1778068627 | 6.67° C | 55% | 1014.9 hPa | 0 mm | - | - | - |
| 1778068329 | 6.67° C | 55% | 1015 hPa | 0 mm | - | - | - |
| 1778067433 | 7.22° C | 53% | 1014.7 hPa | 0 mm | - | - | - |
| 1778066522 | 7.78° C | 52% | 1014.5 hPa | 0 mm | - | - | - |
| 1778065322 | 8.33° C | 53% | 1014.6 hPa | 0 mm | - | - | - |
| 1778064722 | 8.33° C | 52% | 1014.5 hPa | 0 mm | - | - | - |
| 1778063782 | 8.33° C | 53% | 1014.5 hPa | 0 mm | - | - | - |
| 1778062626 | 8.33° C | 53% | 1014.4 hPa | 0 mm | - | - | - |
* Rain latest hour (hover to see other rain measurements)
** Current wind speed in m/s (hover to see current wind gust speed)